sensor_id;sensor_type;location;lat;lon;timestamp;temperature;humidity
20732;DHT22;10527;52.124;5.196;2022-10-22T00:00:10;14.60;99.90
20732;DHT22;10527;52.124;5.196;2022-10-22T00:02:39;14.50;99.90
20732;DHT22;10527;52.124;5.196;2022-10-22T00:05:07;14.50;99.90
20732;DHT22;10527;52.124;5.196;2022-10-22T00:07:34;14.50;99.90
20732;DHT22;10527;52.124;5.196;2022-10-22T00:10:04;14.40;99.90
20732;DHT22;10527;52.124;5.196;2022-10-22T00:12:31;14.40;99.90
20732;DHT22;10527;52.124;5.196;2022-10-22T00:14:59;14.40;99.90
20732;DHT22;10527;52.124;5.196;2022-10-22T00:17:25;14.50;99.90
20732;DHT22;10527;52.124;5.196;2022-10-22T00:19:59;14.50;99.90
20732;DHT22;10527;52.124;5.196;2022-10-22T00:22:26;14.50;99.90
20732;DHT22;10527;52.124;5.196;2022-10-22T00:24:53;14.60;99.90
20732;DHT22;10527;52.124;5.196;2022-10-22T00:27:20;14.60;99.90
20732;DHT22;10527;52.124;5.196;2022-10-22T00:29:54;14.60;99.90
20732;DHT22;10527;52.124;5.196;2022-10-22T00:32:20;14.60;99.90
20732;DHT22;10527;52.124;5.196;2022-10-22T00:34:47;14.60;99.90
20732;DHT22;10527;52.124;5.196;2022-10-22T00:37:14;14.60;99.90
20732;DHT22;10527;52.124;5.196;2022-10-22T00:39:41;14.60;99.90
20732;DHT22;10527;52.124;5.196;2022-10-22T00:42:14;14.60;99.90
20732;DHT22;10527;52.124;5.196;2022-10-22T00:48:10;14.60;99.90
20732;DHT22;10527;52.124;5.196;2022-10-22T00:50:53;14.60;99.90
20732;DHT22;10527;52.124;5.196;2022-10-22T00:53:33;14.60;99.90
20732;DHT22;10527;52.124;5.196;2022-10-22T00:56:03;14.60;99.90
20732;DHT22;10527;52.124;5.196;2022-10-22T00:58:35;14.60;99.90
20732;DHT22;10527;52.124;5.196;2022-10-22T01:01:05;14.60;99.90
20732;DHT22;10527;52.124;5.196;2022-10-22T01:03:37;14.60;99.90
20732;DHT22;10527;52.124;5.196;2022-10-22T01:06:05;14.60;99.90
20732;DHT22;10527;52.124;5.196;2022-10-22T01:08:43;14.60;99.90
20732;DHT22;10527;52.124;5.196;2022-10-22T01:11:33;14.50;99.90
20732;DHT22;10527;52.124;5.196;2022-10-22T01:14:13;14.60;99.90
20732;DHT22;10527;52.124;5.196;2022-10-22T01:25:23;14.60;99.90
20732;DHT22;10527;52.124;5.196;2022-10-22T01:31:22;14.60;99.90
20732;DHT22;10527;52.124;5.196;2022-10-22T01:33:53;14.60;99.90
20732;DHT22;10527;52.124;5.196;2022-10-22T01:36:21;14.60;99.90
20732;DHT22;10527;52.124;5.196;2022-10-22T01:38:48;14.60;99.90
20732;DHT22;10527;52.124;5.196;2022-10-22T01:41:16;14.60;99.90
20732;DHT22;10527;52.124;5.196;2022-10-22T01:43:43;14.60;99.90
20732;DHT22;10527;52.124;5.196;2022-10-22T01:46:10;14.60;99.90
20732;DHT22;10527;52.124;5.196;2022-10-22T01:48:47;14.60;99.90
20732;DHT22;10527;52.124;5.196;2022-10-22T02:02:40;14.60;99.90
20732;DHT22;10527;52.124;5.196;2022-10-22T02:05:27;14.60;99.90
20732;DHT22;10527;52.124;5.196;2022-10-22T02:08:14;14.60;99.90
20732;DHT22;10527;52.124;5.196;2022-10-22T02:10:45;14.60;99.90
20732;DHT22;10527;52.124;5.196;2022-10-22T02:13:29;14.60;99.90
20732;DHT22;10527;52.124;5.196;2022-10-22T02:16:03;14.50;99.90
20732;DHT22;10527;52.124;5.196;2022-10-22T02:18:35;14.50;99.90
20732;DHT22;10527;52.124;5.196;2022-10-22T02:21:06;14.50;99.90
20732;DHT22;10527;52.124;5.196;2022-10-22T02:23:39;14.50;99.90
20732;DHT22;10527;52.124;5.196;2022-10-22T02:26:12;14.50;99.90
20732;DHT22;10527;52.124;5.196;2022-10-22T02:29:29;14.40;99.90
20732;DHT22;10527;52.124;5.196;2022-10-22T02:32:02;14.40;99.90
20732;DHT22;10527;52.124;5.196;2022-10-22T02:34:32;14.40;99.90
20732;DHT22;10527;52.124;5.196;2022-10-22T02:37:01;14.40;99.90
20732;DHT22;10527;52.124;5.196;2022-10-22T02:39:30;14.40;99.90
20732;DHT22;10527;52.124;5.196;2022-10-22T02:42:00;14.40;99.90
20732;DHT22;10527;52.124;5.196;2022-10-22T02:44:28;14.40;99.90
20732;DHT22;10527;52.124;5.196;2022-10-22T02:46:54;14.40;99.90
20732;DHT22;10527;52.124;5.196;2022-10-22T02:49:21;14.40;99.90
20732;DHT22;10527;52.124;5.196;2022-10-22T02:51:48;14.40;99.90
20732;DHT22;10527;52.124;5.196;2022-10-22T02:54:20;14.30;99.90
20732;DHT22;10527;52.124;5.196;2022-10-22T02:56:46;14.30;99.90
20732;DHT22;10527;52.124;5.196;2022-10-22T02:59:13;14.30;99.90
20732;DHT22;10527;52.124;5.196;2022-10-22T03:01:40;14.30;99.90
20732;DHT22;10527;52.124;5.196;2022-10-22T03:04:07;14.30;99.90
20732;DHT22;10527;52.124;5.196;2022-10-22T03:06:34;14.20;99.90
20732;DHT22;10527;52.124;5.196;2022-10-22T03:09:00;14.20;99.90
20732;DHT22;10527;52.124;5.196;2022-10-22T03:11:27;14.20;99.90
20732;DHT22;10527;52.124;5.196;2022-10-22T03:13:54;14.20;99.90
20732;DHT22;10527;52.124;5.196;2022-10-22T03:16:21;14.30;99.90
20732;DHT22;10527;52.124;5.196;2022-10-22T03:18:47;14.20;99.90
20732;DHT22;10527;52.124;5.196;2022-10-22T03:21:27;14.20;99.90
20732;DHT22;10527;52.124;5.196;2022-10-22T03:24:04;14.20;99.90
20732;DHT22;10527;52.124;5.196;2022-10-22T03:26:34;14.20;99.90
20732;DHT22;10527;52.124;5.196;2022-10-22T03:29:04;14.10;99.90
20732;DHT22;10527;52.124;5.196;2022-10-22T03:31:31;14.20;99.90
20732;DHT22;10527;52.124;5.196;2022-10-22T03:33:57;14.10;99.90
20732;DHT22;10527;52.124;5.196;2022-10-22T03:36:24;14.10;99.90
20732;DHT22;10527;52.124;5.196;2022-10-22T03:38:51;14.20;99.90
20732;DHT22;10527;52.124;5.196;2022-10-22T03:41:18;14.10;99.90
20732;DHT22;10527;52.124;5.196;2022-10-22T03:43:45;14.10;99.90
20732;DHT22;10527;52.124;5.196;2022-10-22T03:46:15;14.10;99.90
20732;DHT22;10527;52.124;5.196;2022-10-22T03:48:42;14.10;99.90
20732;DHT22;10527;52.124;5.196;2022-10-22T03:51:08;14.00;99.90
20732;DHT22;10527;52.124;5.196;2022-10-22T03:53:35;14.00;99.90
20732;DHT22;10527;52.124;5.196;2022-10-22T03:56:07;14.00;99.90
20732;DHT22;10527;52.124;5.196;2022-10-22T03:58:36;14.00;99.90
20732;DHT22;10527;52.124;5.196;2022-10-22T04:01:06;13.90;99.90
20732;DHT22;10527;52.124;5.196;2022-10-22T04:03:39;13.90;99.90
20732;DHT22;10527;52.124;5.196;2022-10-22T04:06:11;14.00;99.90
20732;DHT22;10527;52.124;5.196;2022-10-22T04:08:40;13.90;99.90
20732;DHT22;10527;52.124;5.196;2022-10-22T04:11:11;13.90;99.90
20732;DHT22;10527;52.124;5.196;2022-10-22T04:13:39;14.00;99.90
20732;DHT22;10527;52.124;5.196;2022-10-22T04:18:39;13.90;99.90
20732;DHT22;10527;52.124;5.196;2022-10-22T04:21:09;14.00;99.90
20732;DHT22;10527;52.124;5.196;2022-10-22T04:23:37;13.80;99.90
20732;DHT22;10527;52.124;5.196;2022-10-22T04:26:06;13.90;99.90
20732;DHT22;10527;52.124;5.196;2022-10-22T04:28:33;13.90;99.90
20732;DHT22;10527;52.124;5.196;2022-10-22T04:31:09;13.80;99.90
20732;DHT22;10527;52.124;5.196;2022-10-22T04:33:38;13.90;99.90
20732;DHT22;10527;52.124;5.196;2022-10-22T04:36:10;13.90;99.90
20732;DHT22;10527;52.124;5.196;2022-10-22T04:38:39;13.80;99.90
20732;DHT22;10527;52.124;5.196;2022-10-22T04:41:09;13.80;99.90
20732;DHT22;10527;52.124;5.196;2022-10-22T04:43:38;13.90;99.90
20732;DHT22;10527;52.124;5.196;2022-10-22T04:46:06;13.90;99.90
20732;DHT22;10527;52.124;5.196;2022-10-22T04:48:35;13.90;99.90
20732;DHT22;10527;52.124;5.196;2022-10-22T04:51:05;13.90;99.90
20732;DHT22;10527;52.124;5.196;2022-10-22T04:53:33;13.90;99.90
20732;DHT22;10527;52.124;5.196;2022-10-22T04:58:44;13.90;99.90
20732;DHT22;10527;52.124;5.196;2022-10-22T05:01:18;13.90;99.90
20732;DHT22;10527;52.124;5.196;2022-10-22T05:03:48;13.80;99.90
20732;DHT22;10527;52.124;5.196;2022-10-22T05:06:18;13.90;99.90
20732;DHT22;10527;52.124;5.196;2022-10-22T05:08:46;13.90;99.90
20732;DHT22;10527;52.124;5.196;2022-10-22T05:11:20;13.90;99.90
20732;DHT22;10527;52.124;5.196;2022-10-22T05:13:50;13.90;99.90
20732;DHT22;10527;52.124;5.196;2022-10-22T05:16:17;13.90;99.90
20732;DHT22;10527;52.124;5.196;2022-10-22T05:18:44;13.90;99.90
20732;DHT22;10527;52.124;5.196;2022-10-22T05:21:16;13.80;99.90
20732;DHT22;10527;52.124;5.196;2022-10-22T05:23:45;13.80;99.90
20732;DHT22;10527;52.124;5.196;2022-10-22T05:26:16;13.70;99.90
20732;DHT22;10527;52.124;5.196;2022-10-22T05:28:50;13.80;99.90
20732;DHT22;10527;52.124;5.196;2022-10-22T05:31:17;13.80;99.90
20732;DHT22;10527;52.124;5.196;2022-10-22T05:33:45;13.80;99.90
20732;DHT22;10527;52.124;5.196;2022-10-22T05:36:15;13.80;99.90
20732;DHT22;10527;52.124;5.196;2022-10-22T05:38:43;13.80;99.90
20732;DHT22;10527;52.124;5.196;2022-10-22T05:41:17;13.80;99.90
20732;DHT22;10527;52.124;5.196;2022-10-22T05:44:01;13.70;99.90
20732;DHT22;10527;52.124;5.196;2022-10-22T05:46:31;13.70;99.90
20732;DHT22;10527;52.124;5.196;2022-10-22T05:49:02;13.80;99.90
20732;DHT22;10527;52.124;5.196;2022-10-22T05:51:34;13.70;99.90
20732;DHT22;10527;52.124;5.196;2022-10-22T05:54:05;13.70;99.90
20732;DHT22;10527;52.124;5.196;2022-10-22T05:56:34;13.70;99.90
20732;DHT22;10527;52.124;5.196;2022-10-22T05:59:02;13.70;99.90
20732;DHT22;10527;52.124;5.196;2022-10-22T06:01:34;13.70;99.90
20732;DHT22;10527;52.124;5.196;2022-10-22T06:04:06;13.60;99.90
20732;DHT22;10527;52.124;5.196;2022-10-22T06:06:42;13.60;99.90
20732;DHT22;10527;52.124;5.196;2022-10-22T06:09:20;13.60;99.90
20732;DHT22;10527;52.124;5.196;2022-10-22T06:11:51;13.50;99.90
20732;DHT22;10527;52.124;5.196;2022-10-22T06:14:18;13.50;99.90
20732;DHT22;10527;52.124;5.196;2022-10-22T06:16:46;13.60;99.90
20732;DHT22;10527;52.124;5.196;2022-10-22T06:19:16;13.60;99.90
20732;DHT22;10527;52.124;5.196;2022-10-22T06:21:45;13.60;99.90
20732;DHT22;10527;52.124;5.196;2022-10-22T06:24:12;13.70;99.90
20732;DHT22;10527;52.124;5.196;2022-10-22T06:26:40;13.50;99.90
20732;DHT22;10527;52.124;5.196;2022-10-22T06:29:07;13.60;99.90
20732;DHT22;10527;52.124;5.196;2022-10-22T06:31:35;13.60;99.90
20732;DHT22;10527;52.124;5.196;2022-10-22T06:34:05;13.50;99.90
20732;DHT22;10527;52.124;5.196;2022-10-22T06:36:34;13.60;99.90
20732;DHT22;10527;52.124;5.196;2022-10-22T06:39:03;13.50;99.90
20732;DHT22;10527;52.124;5.196;2022-10-22T06:41:30;13.50;99.90
20732;DHT22;10527;52.124;5.196;2022-10-22T06:43:57;13.60;99.90
20732;DHT22;10527;52.124;5.196;2022-10-22T06:46:25;13.60;99.90
20732;DHT22;10527;52.124;5.196;2022-10-22T06:49:00;13.60;99.90
20732;DHT22;10527;52.124;5.196;2022-10-22T06:51:28;13.60;99.90
20732;DHT22;10527;52.124;5.196;2022-10-22T06:53:56;13.60;99.90
20732;DHT22;10527;52.124;5.196;2022-10-22T06:56:26;13.60;99.90
20732;DHT22;10527;52.124;5.196;2022-10-22T06:58:56;13.70;99.90
20732;DHT22;10527;52.124;5.196;2022-10-22T07:01:27;13.70;99.90
20732;DHT22;10527;52.124;5.196;2022-10-22T07:03:56;13.70;99.90
20732;DHT22;10527;52.124;5.196;2022-10-22T07:06:26;13.80;99.90
20732;DHT22;10527;52.124;5.196;2022-10-22T07:09:03;13.80;99.90
20732;DHT22;10527;52.124;5.196;2022-10-22T07:11:43;13.80;99.90
20732;DHT22;10527;52.124;5.196;2022-10-22T07:14:12;13.80;99.90
20732;DHT22;10527;52.124;5.196;2022-10-22T07:16:42;13.90;99.90
20732;DHT22;10527;52.124;5.196;2022-10-22T07:19:11;14.00;99.90
20732;DHT22;10527;52.124;5.196;2022-10-22T07:21:39;14.00;99.90
20732;DHT22;10527;52.124;5.196;2022-10-22T07:24:06;14.00;99.90
20732;DHT22;10527;52.124;5.196;2022-10-22T07:26:35;14.10;99.90
20732;DHT22;10527;52.124;5.196;2022-10-22T07:29:03;14.10;99.90
20732;DHT22;10527;52.124;5.196;2022-10-22T07:31:30;14.10;99.90
20732;DHT22;10527;52.124;5.196;2022-10-22T07:33:57;14.10;99.90
20732;DHT22;10527;52.124;5.196;2022-10-22T07:36:25;14.20;99.90
20732;DHT22;10527;52.124;5.196;2022-10-22T07:38:59;14.20;99.90
20732;DHT22;10527;52.124;5.196;2022-10-22T07:41:29;14.20;99.90
20732;DHT22;10527;52.124;5.196;2022-10-22T07:43:56;14.30;99.90
20732;DHT22;10527;52.124;5.196;2022-10-22T07:46:24;14.30;99.90
20732;DHT22;10527;52.124;5.196;2022-10-22T07:48:52;14.30;99.90
20732;DHT22;10527;52.124;5.196;2022-10-22T07:51:19;14.40;99.90
20732;DHT22;10527;52.124;5.196;2022-10-22T07:53:46;14.50;99.90
20732;DHT22;10527;52.124;5.196;2022-10-22T07:56:13;14.50;99.90
20732;DHT22;10527;52.124;5.196;2022-10-22T07:58:40;14.50;99.90
20732;DHT22;10527;52.124;5.196;2022-10-22T08:01:07;14.60;99.90
20732;DHT22;10527;52.124;5.196;2022-10-22T08:03:34;14.60;99.90
20732;DHT22;10527;52.124;5.196;2022-10-22T08:06:01;14.70;99.90
20732;DHT22;10527;52.124;5.196;2022-10-22T08:08:28;14.70;99.90
20732;DHT22;10527;52.124;5.196;2022-10-22T08:10:59;14.70;99.90
20732;DHT22;10527;52.124;5.196;2022-10-22T08:13:31;14.80;99.90
20732;DHT22;10527;52.124;5.196;2022-10-22T08:15:59;14.70;99.90
20732;DHT22;10527;52.124;5.196;2022-10-22T08:18:27;14.80;99.90
20732;DHT22;10527;52.124;5.196;2022-10-22T08:20:54;14.70;99.90
20732;DHT22;10527;52.124;5.196;2022-10-22T08:23:21;14.70;99.90
20732;DHT22;10527;52.124;5.196;2022-10-22T08:25:53;14.80;99.90
20732;DHT22;10527;52.124;5.196;2022-10-22T08:28:20;14.80;99.90
20732;DHT22;10527;52.124;5.196;2022-10-22T08:30:48;14.90;99.90
20732;DHT22;10527;52.124;5.196;2022-10-22T08:33:15;14.90;99.90
20732;DHT22;10527;52.124;5.196;2022-10-22T08:35:47;14.90;99.90
20732;DHT22;10527;52.124;5.196;2022-10-22T08:38:16;15.00;99.90
20732;DHT22;10527;52.124;5.196;2022-10-22T08:40:47;14.90;99.90
20732;DHT22;10527;52.124;5.196;2022-10-22T08:43:53;15.00;99.90
20732;DHT22;10527;52.124;5.196;2022-10-22T08:46:43;15.10;99.90
20732;DHT22;10527;52.124;5.196;2022-10-22T08:49:20;15.10;99.90
20732;DHT22;10527;52.124;5.196;2022-10-22T08:51:51;15.10;99.90
20732;DHT22;10527;52.124;5.196;2022-10-22T09:00:08;15.10;99.90
20732;DHT22;10527;52.124;5.196;2022-10-22T09:06:27;15.30;99.90
20732;DHT22;10527;52.124;5.196;2022-10-22T09:09:17;15.30;99.90
20732;DHT22;10527;52.124;5.196;2022-10-22T09:12:05;15.40;99.90
20732;DHT22;10527;52.124;5.196;2022-10-22T09:14:32;15.40;99.90
20732;DHT22;10527;52.124;5.196;2022-10-22T09:17:42;15.50;99.90
20732;DHT22;10527;52.124;5.196;2022-10-22T09:20:30;15.50;99.90
20732;DHT22;10527;52.124;5.196;2022-10-22T09:26:13;15.70;99.90
20732;DHT22;10527;52.124;5.196;2022-10-22T09:28:42;15.60;99.90
20732;DHT22;10527;52.124;5.196;2022-10-22T09:31:13;15.80;99.90
20732;DHT22;10527;52.124;5.196;2022-10-22T09:33:42;15.80;99.90
20732;DHT22;10527;52.124;5.196;2022-10-22T09:36:56;15.90;99.90
20732;DHT22;10527;52.124;5.196;2022-10-22T09:39:32;15.90;99.90
20732;DHT22;10527;52.124;5.196;2022-10-22T09:42:02;15.90;99.90
20732;DHT22;10527;52.124;5.196;2022-10-22T09:44:33;16.10;99.90
20732;DHT22;10527;52.124;5.196;2022-10-22T09:47:06;16.20;99.90
20732;DHT22;10527;52.124;5.196;2022-10-22T09:50:24;16.30;99.90
20732;DHT22;10527;52.124;5.196;2022-10-22T09:53:20;16.30;99.90
20732;DHT22;10527;52.124;5.196;2022-10-22T09:55:53;16.40;99.90
20732;DHT22;10527;52.124;5.196;2022-10-22T09:58:26;16.40;99.90
20732;DHT22;10527;52.124;5.196;2022-10-22T10:00:56;16.50;99.90
20732;DHT22;10527;52.124;5.196;2022-10-22T10:03:28;16.70;99.90
20732;DHT22;10527;52.124;5.196;2022-10-22T10:06:00;16.60;99.90
20732;DHT22;10527;52.124;5.196;2022-10-22T10:08:32;16.50;99.90
20732;DHT22;10527;52.124;5.196;2022-10-22T10:11:16;16.50;99.90
20732;DHT22;10527;52.124;5.196;2022-10-22T10:14:14;16.50;99.90
20732;DHT22;10527;52.124;5.196;2022-10-22T10:16:57;16.50;99.90
20732;DHT22;10527;52.124;5.196;2022-10-22T10:22:33;16.60;99.90
20732;DHT22;10527;52.124;5.196;2022-10-22T10:25:40;16.60;99.90
20732;DHT22;10527;52.124;5.196;2022-10-22T10:28:27;16.60;99.90
20732;DHT22;10527;52.124;5.196;2022-10-22T10:33:50;16.50;99.90
20732;DHT22;10527;52.124;5.196;2022-10-22T10:42:26;16.60;99.90
20732;DHT22;10527;52.124;5.196;2022-10-22T10:45:29;16.60;99.90
20732;DHT22;10527;52.124;5.196;2022-10-22T10:51:33;16.60;99.90
20732;DHT22;10527;52.124;5.196;2022-10-22T11:05:22;16.90;99.90
20732;DHT22;10527;52.124;5.196;2022-10-22T11:08:24;16.90;99.90
20732;DHT22;10527;52.124;5.196;2022-10-22T11:10:58;17.10;99.90
20732;DHT22;10527;52.124;5.196;2022-10-22T11:16:36;17.30;99.90
20732;DHT22;10527;52.124;5.196;2022-10-22T11:19:44;17.30;99.90
20732;DHT22;10527;52.124;5.196;2022-10-22T11:22:40;17.20;99.90
20732;DHT22;10527;52.124;5.196;2022-10-22T11:25:48;17.50;99.90
20732;DHT22;10527;52.124;5.196;2022-10-22T11:31:08;17.50;99.90
20732;DHT22;10527;52.124;5.196;2022-10-22T11:33:57;17.70;99.90
20732;DHT22;10527;52.124;5.196;2022-10-22T11:36:48;17.80;99.90
20732;DHT22;10527;52.124;5.196;2022-10-22T11:39:42;17.70;99.90
20732;DHT22;10527;52.124;5.196;2022-10-22T11:42:20;17.80;99.90
20732;DHT22;10527;52.124;5.196;2022-10-22T11:50:51;17.30;99.90
20732;DHT22;10527;52.124;5.196;2022-10-22T11:53:35;17.30;99.90
20732;DHT22;10527;52.124;5.196;2022-10-22T11:58:41;17.30;99.90
20732;DHT22;10527;52.124;5.196;2022-10-22T12:04:32;17.20;99.90
20732;DHT22;10527;52.124;5.196;2022-10-22T12:06:59;17.20;99.90
20732;DHT22;10527;52.124;5.196;2022-10-22T12:09:28;17.20;99.90
20732;DHT22;10527;52.124;5.196;2022-10-22T12:12:12;17.20;99.90
20732;DHT22;10527;52.124;5.196;2022-10-22T12:15:19;17.30;99.90
20732;DHT22;10527;52.124;5.196;2022-10-22T12:18:04;17.30;99.90
20732;DHT22;10527;52.124;5.196;2022-10-22T12:20:31;17.40;99.90
20732;DHT22;10527;52.124;5.196;2022-10-22T12:22:58;17.40;99.90
20732;DHT22;10527;52.124;5.196;2022-10-22T12:25:30;17.40;99.90
20732;DHT22;10527;52.124;5.196;2022-10-22T12:28:01;17.40;99.90
20732;DHT22;10527;52.124;5.196;2022-10-22T12:30:33;17.60;99.90
20732;DHT22;10527;52.124;5.196;2022-10-22T12:33:03;17.90;99.90
20732;DHT22;10527;52.124;5.196;2022-10-22T12:35:42;17.90;99.90
20732;DHT22;10527;52.124;5.196;2022-10-22T12:38:21;18.10;99.90
20732;DHT22;10527;52.124;5.196;2022-10-22T12:40:53;18.10;99.90
20732;DHT22;10527;52.124;5.196;2022-10-22T12:43:26;18.30;99.90
20732;DHT22;10527;52.124;5.196;2022-10-22T12:45:55;18.50;99.90
20732;DHT22;10527;52.124;5.196;2022-10-22T12:48:32;18.50;99.90
20732;DHT22;10527;52.124;5.196;2022-10-22T12:51:05;18.40;99.90
20732;DHT22;10527;52.124;5.196;2022-10-22T12:53:36;18.50;99.90
20732;DHT22;10527;52.124;5.196;2022-10-22T12:56:14;18.70;99.90
20732;DHT22;10527;52.124;5.196;2022-10-22T12:58:54;18.60;99.90
20732;DHT22;10527;52.124;5.196;2022-10-22T13:01:27;18.60;99.90
20732;DHT22;10527;52.124;5.196;2022-10-22T13:07:14;18.70;99.90
20732;DHT22;10527;52.124;5.196;2022-10-22T13:09:58;18.70;99.90
20732;DHT22;10527;52.124;5.196;2022-10-22T13:12:27;18.90;99.90
20732;DHT22;10527;52.124;5.196;2022-10-22T13:15:38;18.80;99.90
20732;DHT22;10527;52.124;5.196;2022-10-22T13:21:01;18.70;99.90
20732;DHT22;10527;52.124;5.196;2022-10-22T13:23:33;18.50;99.90
20732;DHT22;10527;52.124;5.196;2022-10-22T13:28:54;18.30;99.90
20732;DHT22;10527;52.124;5.196;2022-10-22T13:31:25;18.40;99.90
20732;DHT22;10527;52.124;5.196;2022-10-22T13:33:58;18.40;99.90
20732;DHT22;10527;52.124;5.196;2022-10-22T13:36:36;18.50;99.90
20732;DHT22;10527;52.124;5.196;2022-10-22T13:39:08;18.60;99.90
20732;DHT22;10527;52.124;5.196;2022-10-22T13:41:41;18.80;99.90
20732;DHT22;10527;52.124;5.196;2022-10-22T13:44:08;18.90;99.90
20732;DHT22;10527;52.124;5.196;2022-10-22T13:46:35;18.80;99.90
20732;DHT22;10527;52.124;5.196;2022-10-22T13:49:20;18.70;99.90
20732;DHT22;10527;52.124;5.196;2022-10-22T13:51:49;18.50;99.90
20732;DHT22;10527;52.124;5.196;2022-10-22T13:54:23;18.60;99.90
20732;DHT22;10527;52.124;5.196;2022-10-22T13:56:51;18.50;99.90
20732;DHT22;10527;52.124;5.196;2022-10-22T13:59:19;18.60;99.90
20732;DHT22;10527;52.124;5.196;2022-10-22T14:01:49;18.60;99.90
20732;DHT22;10527;52.124;5.196;2022-10-22T14:04:16;18.60;99.90
20732;DHT22;10527;52.124;5.196;2022-10-22T14:06:43;18.50;99.90
20732;DHT22;10527;52.124;5.196;2022-10-22T14:09:14;18.50;99.90
20732;DHT22;10527;52.124;5.196;2022-10-22T14:11:41;18.40;99.90
20732;DHT22;10527;52.124;5.196;2022-10-22T14:14:08;18.30;99.90
20732;DHT22;10527;52.124;5.196;2022-10-22T14:16:39;18.30;99.90
20732;DHT22;10527;52.124;5.196;2022-10-22T14:19:09;18.40;99.90
20732;DHT22;10527;52.124;5.196;2022-10-22T14:21:42;18.30;99.90
20732;DHT22;10527;52.124;5.196;2022-10-22T14:24:10;18.30;99.90
20732;DHT22;10527;52.124;5.196;2022-10-22T14:26:39;18.20;99.90
20732;DHT22;10527;52.124;5.196;2022-10-22T14:29:06;18.30;99.90
20732;DHT22;10527;52.124;5.196;2022-10-22T14:31:37;18.20;99.90
20732;DHT22;10527;52.124;5.196;2022-10-22T14:34:08;18.10;99.90
20732;DHT22;10527;52.124;5.196;2022-10-22T14:36:39;18.10;99.90
20732;DHT22;10527;52.124;5.196;2022-10-22T14:39:08;18.10;99.90
20732;DHT22;10527;52.124;5.196;2022-10-22T14:41:35;18.00;99.90
20732;DHT22;10527;52.124;5.196;2022-10-22T14:44:03;18.00;99.90
20732;DHT22;10527;52.124;5.196;2022-10-22T14:46:30;18.10;99.90
20732;DHT22;10527;52.124;5.196;2022-10-22T14:48:57;18.00;99.90
20732;DHT22;10527;52.124;5.196;2022-10-22T14:51:24;17.90;99.90
20732;DHT22;10527;52.124;5.196;2022-10-22T14:53:50;18.00;99.90
20732;DHT22;10527;52.124;5.196;2022-10-22T14:56:18;17.90;99.90
20732;DHT22;10527;52.124;5.196;2022-10-22T14:58:47;17.90;99.90
20732;DHT22;10527;52.124;5.196;2022-10-22T15:01:15;17.90;99.90
20732;DHT22;10527;52.124;5.196;2022-10-22T15:03:42;17.80;99.90
20732;DHT22;10527;52.124;5.196;2022-10-22T15:06:09;17.80;99.90
20732;DHT22;10527;52.124;5.196;2022-10-22T15:08:35;17.90;99.90
20732;DHT22;10527;52.124;5.196;2022-10-22T15:11:08;17.90;99.90
20732;DHT22;10527;52.124;5.196;2022-10-22T15:13:37;17.90;99.90
20732;DHT22;10527;52.124;5.196;2022-10-22T15:16:07;18.00;99.90
20732;DHT22;10527;52.124;5.196;2022-10-22T15:18:36;18.00;99.90
20732;DHT22;10527;52.124;5.196;2022-10-22T15:21:06;18.00;99.90
20732;DHT22;10527;52.124;5.196;2022-10-22T15:23:39;17.90;99.90
20732;DHT22;10527;52.124;5.196;2022-10-22T15:26:07;17.90;99.90
20732;DHT22;10527;52.124;5.196;2022-10-22T15:28:38;17.80;99.90
20732;DHT22;10527;52.124;5.196;2022-10-22T15:31:06;17.80;99.90
20732;DHT22;10527;52.124;5.196;2022-10-22T15:33:33;17.90;99.90
20732;DHT22;10527;52.124;5.196;2022-10-22T15:36:15;17.70;99.90
20732;DHT22;10527;52.124;5.196;2022-10-22T15:38:42;17.70;99.90
20732;DHT22;10527;52.124;5.196;2022-10-22T15:41:10;17.70;99.90
20732;DHT22;10527;52.124;5.196;2022-10-22T15:43:38;17.60;99.90
20732;DHT22;10527;52.124;5.196;2022-10-22T15:46:14;17.60;99.90
20732;DHT22;10527;52.124;5.196;2022-10-22T15:48:45;17.70;99.90
20732;DHT22;10527;52.124;5.196;2022-10-22T15:51:14;17.50;99.90
20732;DHT22;10527;52.124;5.196;2022-10-22T15:53:43;17.60;99.90
20732;DHT22;10527;52.124;5.196;2022-10-22T15:56:15;17.50;99.90
20732;DHT22;10527;52.124;5.196;2022-10-22T15:58:42;17.40;99.90
20732;DHT22;10527;52.124;5.196;2022-10-22T16:01:11;17.40;99.90
20732;DHT22;10527;52.124;5.196;2022-10-22T16:03:40;17.40;99.90
20732;DHT22;10527;52.124;5.196;2022-10-22T16:06:08;17.40;99.90
20732;DHT22;10527;52.124;5.196;2022-10-22T16:08:35;17.40;99.90
20732;DHT22;10527;52.124;5.196;2022-10-22T16:11:02;17.40;99.90
20732;DHT22;10527;52.124;5.196;2022-10-22T16:13:29;17.40;99.90
20732;DHT22;10527;52.124;5.196;2022-10-22T16:15:56;17.40;99.90
20732;DHT22;10527;52.124;5.196;2022-10-22T16:18:24;17.40;99.90
20732;DHT22;10527;52.124;5.196;2022-10-22T16:20:51;17.30;99.90
20732;DHT22;10527;52.124;5.196;2022-10-22T16:23:18;17.30;99.90
20732;DHT22;10527;52.124;5.196;2022-10-22T16:25:46;17.30;99.90
20732;DHT22;10527;52.124;5.196;2022-10-22T16:28:13;17.20;99.90
20732;DHT22;10527;52.124;5.196;2022-10-22T16:30:40;17.20;99.90
20732;DHT22;10527;52.124;5.196;2022-10-22T16:33:08;17.20;99.90
20732;DHT22;10527;52.124;5.196;2022-10-22T16:35:40;17.20;99.90
20732;DHT22;10527;52.124;5.196;2022-10-22T16:38:09;17.10;99.90
20732;DHT22;10527;52.124;5.196;2022-10-22T16:40:36;17.00;99.90
20732;DHT22;10527;52.124;5.196;2022-10-22T16:43:03;17.00;99.90
20732;DHT22;10527;52.124;5.196;2022-10-22T16:45:30;16.90;99.90
20732;DHT22;10527;52.124;5.196;2022-10-22T16:47:57;16.90;99.90
20732;DHT22;10527;52.124;5.196;2022-10-22T16:50:23;16.80;99.90
20732;DHT22;10527;52.124;5.196;2022-10-22T16:52:50;16.80;99.90
20732;DHT22;10527;52.124;5.196;2022-10-22T16:55:17;16.70;99.90
20732;DHT22;10527;52.124;5.196;2022-10-22T16:57:49;16.70;99.90
20732;DHT22;10527;52.124;5.196;2022-10-22T17:00:17;16.70;99.90
20732;DHT22;10527;52.124;5.196;2022-10-22T17:02:50;16.60;99.90
20732;DHT22;10527;52.124;5.196;2022-10-22T17:05:20;16.60;99.90
20732;DHT22;10527;52.124;5.196;2022-10-22T17:07:47;16.50;99.90
20732;DHT22;10527;52.124;5.196;2022-10-22T17:10:15;16.40;99.90
20732;DHT22;10527;52.124;5.196;2022-10-22T17:12:45;16.40;99.90
20732;DHT22;10527;52.124;5.196;2022-10-22T17:15:13;16.40;99.90
20732;DHT22;10527;52.124;5.196;2022-10-22T17:17:40;16.40;99.90
20732;DHT22;10527;52.124;5.196;2022-10-22T17:20:07;16.40;99.90
20732;DHT22;10527;52.124;5.196;2022-10-22T17:22:34;16.30;99.90
20732;DHT22;10527;52.124;5.196;2022-10-22T17:27:42;16.20;99.90
20732;DHT22;10527;52.124;5.196;2022-10-22T17:30:14;16.20;99.90
20732;DHT22;10527;52.124;5.196;2022-10-22T17:32:52;16.10;99.90
20732;DHT22;10527;52.124;5.196;2022-10-22T17:35:20;16.20;99.90
20732;DHT22;10527;52.124;5.196;2022-10-22T17:37:47;16.10;99.90
20732;DHT22;10527;52.124;5.196;2022-10-22T17:40:14;16.00;99.90